createdAt,value
2019-05-02T00:01:16.710Z,9.90
2019-05-02T00:03:45.813Z,9.70
2019-05-02T00:06:15.337Z,9.80
2019-05-02T00:08:44.627Z,9.60
2019-05-02T00:11:13.930Z,9.60
2019-05-02T00:13:42.967Z,9.60
2019-05-02T00:16:14.241Z,9.70
2019-05-02T00:18:43.014Z,9.50
2019-05-02T00:21:12.553Z,9.40
2019-05-02T00:23:41.621Z,9.40
2019-05-02T00:26:10.934Z,9.40
2019-05-02T00:28:42.864Z,9.40
2019-05-02T00:31:11.573Z,9.30
2019-05-02T00:33:41.579Z,9.30
2019-05-02T00:36:10.710Z,9.30
2019-05-02T00:38:39.945Z,9.40
2019-05-02T00:41:09.049Z,9.40
2019-05-02T00:43:38.061Z,9.20
2019-05-02T00:46:07.206Z,9.30
2019-05-02T00:48:44.141Z,9.30
2019-05-02T00:51:13.063Z,9.30
2019-05-02T00:53:44.497Z,9.20
2019-05-02T00:56:13.018Z,9.00
2019-05-02T00:58:42.112Z,8.80
2019-05-02T01:01:39.408Z,8.70
2019-05-02T01:04:33.630Z,8.70
2019-05-02T01:07:04.245Z,8.70
2019-05-02T01:09:33.416Z,8.80
2019-05-02T01:12:03.193Z,8.80
2019-05-02T01:14:33.369Z,8.60
2019-05-02T01:17:02.491Z,8.60
2019-05-02T01:19:31.734Z,8.40
2019-05-02T01:22:00.789Z,8.60
2019-05-02T01:24:34.119Z,8.50
2019-05-02T01:27:07.607Z,8.50
2019-05-02T01:29:47.869Z,8.50
2019-05-02T01:32:32.694Z,8.50
2019-05-02T01:35:12.540Z,8.60
2019-05-02T01:38:15.992Z,8.60
2019-05-02T01:40:48.148Z,8.50
2019-05-02T01:43:29.277Z,8.40
2019-05-02T01:45:58.495Z,8.50
2019-05-02T01:48:27.753Z,8.30
2019-05-02T01:50:56.812Z,8.40
2019-05-02T01:53:29.243Z,8.30
2019-05-02T01:55:57.367Z,8.30
2019-05-02T01:58:27.384Z,8.10
2019-05-02T02:00:56.571Z,8.10
2019-05-02T02:03:25.607Z,8.10
2019-05-02T02:05:54.662Z,8.00
2019-05-02T02:08:27.521Z,8.00
2019-05-02T02:10:56.223Z,8.10
2019-05-02T02:13:25.128Z,8.00
2019-05-02T02:15:54.192Z,8.00
2019-05-02T02:18:27.635Z,8.00
2019-05-02T02:21:29.502Z,8.00
2019-05-02T02:24:08.541Z,8.00
2019-05-02T02:26:37.636Z,7.90
2019-05-02T02:29:07.807Z,7.80
2019-05-02T02:31:39.897Z,7.70
2019-05-02T02:34:08.201Z,7.60
2019-05-02T02:36:37.244Z,7.50
2019-05-02T02:39:14.541Z,7.50
2019-05-02T02:41:38.737Z,7.70
2019-05-02T02:44:33.538Z,7.80
2019-05-02T02:47:00.733Z,7.70
2019-05-02T02:49:29.995Z,7.70
2019-05-02T02:52:04.762Z,7.80
2019-05-02T02:54:29.770Z,7.80
2019-05-02T02:56:58.817Z,7.80
2019-05-02T02:59:28.286Z,7.70
2019-05-02T03:02:09.146Z,7.60
2019-05-02T03:04:28.205Z,7.50
2019-05-02T03:06:57.333Z,7.50
2019-05-02T03:09:28.509Z,7.50
2019-05-02T03:12:15.094Z,7.80
2019-05-02T03:14:49.535Z,7.90
2019-05-02T03:17:20.358Z,7.70
2019-05-02T03:19:54.206Z,7.80
2019-05-02T03:22:20.665Z,8.00
2019-05-02T03:24:50.074Z,8.00
2019-05-02T03:27:19.156Z,8.10
2019-05-02T03:29:48.240Z,8.10
2019-05-02T03:32:32.082Z,7.90
2019-05-02T03:34:52.916Z,7.80
2019-05-02T03:37:18.754Z,7.70
2019-05-02T03:39:57.427Z,7.60
2019-05-02T03:42:19.613Z,7.60
2019-05-02T03:44:55.186Z,7.70
2019-05-02T03:47:19.468Z,7.50
2019-05-02T03:49:51.755Z,7.60
2019-05-02T03:52:19.341Z,7.60
2019-05-02T03:54:50.301Z,7.70
2019-05-02T03:57:32.448Z,7.80
2019-05-02T03:59:49.939Z,7.80
2019-05-02T04:02:20.384Z,7.90
2019-05-02T04:04:54.143Z,7.80
2019-05-02T04:07:20.899Z,7.70
2019-05-02T04:09:50.047Z,7.70
2019-05-02T04:12:21.860Z,7.80
2019-05-02T04:14:55.621Z,7.70
2019-05-02T04:17:22.074Z,7.70
2019-05-02T04:19:51.202Z,7.60
2019-05-02T04:22:20.833Z,7.50
2019-05-02T04:24:54.567Z,7.50
2019-05-02T04:27:21.097Z,7.40
2019-05-02T04:29:50.248Z,7.50
2019-05-02T04:32:19.457Z,7.40
2019-05-02T04:34:55.343Z,7.50
2019-05-02T04:37:19.388Z,7.50
2019-05-02T04:39:49.161Z,7.50
2019-05-02T04:42:23.007Z,7.70
2019-05-02T04:45:12.864Z,7.70
2019-05-02T04:47:21.817Z,7.70
2019-05-02T04:49:52.137Z,7.60
2019-05-02T04:52:21.503Z,7.70
2019-05-02T04:54:50.774Z,7.80
2019-05-02T04:57:19.799Z,7.70
2019-05-02T04:59:50.599Z,7.60
2019-05-02T05:02:21.174Z,7.60
2019-05-02T05:04:50.345Z,7.60
2019-05-02T05:07:19.430Z,7.80
2019-05-02T05:09:57.056Z,7.80
2019-05-02T05:12:19.555Z,7.90
2019-05-02T05:14:48.622Z,8.00
2019-05-02T05:17:19.898Z,8.20
2019-05-02T05:19:48.875Z,8.20
2019-05-02T05:22:18.517Z,8.20
2019-05-02T05:24:53.445Z,8.20
2019-05-02T05:27:22.899Z,8.20
2019-05-02T05:29:53.554Z,8.30
2019-05-02T05:32:22.834Z,8.30
2019-05-02T05:34:51.924Z,8.50
2019-05-02T05:37:20.852Z,8.40
2019-05-02T05:39:52.605Z,8.40
2019-05-02T05:42:23.421Z,8.40
2019-05-02T05:44:51.322Z,8.50
2019-05-02T05:47:21.456Z,8.50
2019-05-02T05:49:52.248Z,8.50
2019-05-02T05:52:21.564Z,8.50
2019-05-02T05:54:50.626Z,8.50
2019-05-02T05:57:21.202Z,8.50
2019-05-02T05:59:50.398Z,8.60
2019-05-02T06:02:19.509Z,8.60
2019-05-02T06:04:50.198Z,8.70
2019-05-02T06:07:20.066Z,8.80
2019-05-02T06:09:49.411Z,8.80
2019-05-02T06:12:18.235Z,8.90
2019-05-02T06:14:47.304Z,8.70
2019-05-02T06:17:16.279Z,8.60
2019-05-02T06:19:48.186Z,8.60
2019-05-02T06:22:23.932Z,8.70
2019-05-02T06:24:50.753Z,8.80
2019-05-02T06:27:20.966Z,8.90
2019-05-02T06:29:51.212Z,8.90
2019-05-02T06:32:20.559Z,8.90
2019-05-02T06:34:50.077Z,8.90
2019-05-02T06:37:19.203Z,9.00
2019-05-02T06:39:48.087Z,9.20
2019-05-02T06:42:17.088Z,9.40
2019-05-02T06:44:46.177Z,9.60
2019-05-02T06:47:15.159Z,9.60
2019-05-02T06:49:44.090Z,9.50
2019-05-02T06:52:13.067Z,9.50
2019-05-02T06:54:42.011Z,9.60
2019-05-02T06:57:10.975Z,9.60
2019-05-02T06:59:40.052Z,9.40
2019-05-02T07:02:09.327Z,9.60
2019-05-02T07:04:38.414Z,9.80
2019-05-02T07:07:07.604Z,10.30
2019-05-02T07:09:40.786Z,10.50
2019-05-02T07:12:09.939Z,10.70
2019-05-02T07:14:38.679Z,10.70
2019-05-02T07:17:15.827Z,10.60
2019-05-02T07:19:51.049Z,10.60
2019-05-02T07:22:20.526Z,11.10
2019-05-02T07:24:49.665Z,11.40
2019-05-02T07:27:18.839Z,11.30
2019-05-02T07:29:52.138Z,11.80
2019-05-02T07:32:19.368Z,11.30
2019-05-02T07:34:49.457Z,11.60
2019-05-02T07:37:18.742Z,11.20
2019-05-02T07:39:47.875Z,11.10
2019-05-02T07:42:17.023Z,11.30
2019-05-02T07:44:46.167Z,11.60
2019-05-02T07:47:15.273Z,12.00
2019-05-02T07:49:44.646Z,12.40
2019-05-02T07:52:13.886Z,12.10
2019-05-02T07:54:42.911Z,12.10
2019-05-02T07:57:11.941Z,12.10
2019-05-02T07:59:41.163Z,11.90
2019-05-02T08:02:10.191Z,11.70
2019-05-02T08:04:43.700Z,11.80
2019-05-02T08:07:10.022Z,11.60
2019-05-02T08:09:43.592Z,11.70
2019-05-02T08:12:10.267Z,12.30
2019-05-02T08:14:39.410Z,12.50
2019-05-02T08:17:16.017Z,12.10
2019-05-02T08:19:41.750Z,11.70
2019-05-02T08:22:13.477Z,11.70
2019-05-02T08:24:40.851Z,12.30
2019-05-02T08:27:29.274Z,13.00
2019-05-02T08:30:00.023Z,13.20
2019-05-02T08:32:30.718Z,13.40
2019-05-02T08:34:59.961Z,13.40
2019-05-02T08:37:28.902Z,13.00
2019-05-02T08:39:57.881Z,13.50
2019-05-02T08:42:27.735Z,13.40
2019-05-02T08:45:00.918Z,13.90
2019-05-02T08:47:30.514Z,14.60
2019-05-02T08:49:59.483Z,14.70
2019-05-02T08:52:28.561Z,14.50
2019-05-02T08:54:57.517Z,14.40
2019-05-02T08:57:30.031Z,14.50
2019-05-02T09:00:00.262Z,15.30
2019-05-02T09:02:40.576Z,15.60
2019-05-02T09:04:59.270Z,15.60
2019-05-02T09:07:31.549Z,15.10
2019-05-02T09:10:05.315Z,15.00
2019-05-02T09:12:31.927Z,15.20
2019-05-02T09:15:02.734Z,16.10
2019-05-02T09:17:36.065Z,16.00
2019-05-02T09:20:10.189Z,16.20
2019-05-02T09:22:33.447Z,15.70
2019-05-02T09:25:02.475Z,16.30
2019-05-02T09:27:33.286Z,16.10
2019-05-02T09:30:02.746Z,16.90
2019-05-02T09:32:32.305Z,17.50
2019-05-02T09:35:06.079Z,17.70
2019-05-02T09:37:32.224Z,17.60
2019-05-02T09:40:02.206Z,16.70
2019-05-02T09:42:32.526Z,16.70
2019-05-02T09:45:03.081Z,16.70
2019-05-02T09:47:37.894Z,17.30
2019-05-02T09:50:20.465Z,18.10
2019-05-02T09:52:47.845Z,18.40
2019-05-02T09:55:17.816Z,18.30
2019-05-02T09:57:46.903Z,18.20
2019-05-02T10:00:41.818Z,18.30
2019-05-02T10:03:12.121Z,18.70
2019-05-02T10:05:43.060Z,18.60
2019-05-02T10:08:13.902Z,17.90
2019-05-02T10:10:45.833Z,18.30
2019-05-02T10:13:13.771Z,17.40
2019-05-02T10:15:43.045Z,17.20
2019-05-02T10:18:14.539Z,17.60
2019-05-02T10:20:43.401Z,17.70
2019-05-02T10:23:19.643Z,17.60
2019-05-02T10:25:46.815Z,17.60
2019-05-02T10:28:15.569Z,17.80
2019-05-02T10:30:47.273Z,18.50
2019-05-02T10:33:15.786Z,19.10
2019-05-02T10:35:46.382Z,19.00
2019-05-02T10:38:19.471Z,19.00
2019-05-02T10:40:48.347Z,19.20
2019-05-02T10:43:16.820Z,19.00
2019-05-02T10:45:52.926Z,18.50
2019-05-02T10:48:27.422Z,18.40
2019-05-02T10:50:52.481Z,18.10
2019-05-02T10:53:21.951Z,18.30
2019-05-02T10:55:52.387Z,19.20
2019-05-02T10:58:26.197Z,18.80
2019-05-02T11:00:52.568Z,18.10
2019-05-02T11:03:37.950Z,18.90
2019-05-02T11:06:07.887Z,19.10
2019-05-02T11:08:41.431Z,19.80
2019-05-02T11:11:08.295Z,19.90
2019-05-02T11:13:53.322Z,19.50
2019-05-02T11:16:43.370Z,18.80
2019-05-02T11:19:16.324Z,18.40
2019-05-02T11:21:55.824Z,19.00
2019-05-02T11:24:16.186Z,20.10
2019-05-02T11:26:45.166Z,19.90
2019-05-02T11:29:14.232Z,19.60
2019-05-02T11:31:43.134Z,19.60
2019-05-02T11:34:12.483Z,19.60
2019-05-02T11:36:42.106Z,19.40
2019-05-02T11:39:20.864Z,19.40
2019-05-02T11:41:42.359Z,19.50
2019-05-02T11:44:12.117Z,19.00
2019-05-02T11:46:43.087Z,19.40
2019-05-02T11:49:12.628Z,20.30
2019-05-02T11:51:42.129Z,20.00
2019-05-02T11:54:12.916Z,19.60
2019-05-02T11:56:48.739Z,20.20
2019-05-02T11:59:14.903Z,19.50
2019-05-02T12:01:57.603Z,19.30
2019-05-02T12:04:18.357Z,19.80
2019-05-02T12:06:50.002Z,19.50
2019-05-02T12:09:18.559Z,19.00
2019-05-02T12:11:54.986Z,18.90
2019-05-02T12:14:18.495Z,18.50
2019-05-02T12:16:47.381Z,18.20
2019-05-02T12:19:16.386Z,18.40
2019-05-02T12:21:53.350Z,18.40
2019-05-02T12:24:22.319Z,18.40
2019-05-02T12:26:52.866Z,18.50
2019-05-02T12:29:21.929Z,18.50
2019-05-02T12:31:52.656Z,18.90
2019-05-02T12:34:22.107Z,18.70
2019-05-02T12:36:52.321Z,18.20
2019-05-02T12:39:22.197Z,17.90
2019-05-02T12:41:53.712Z,18.10
2019-05-02T12:44:22.636Z,19.00
2019-05-02T12:46:51.922Z,19.10
2019-05-02T12:49:25.267Z,18.80
2019-05-02T12:51:52.562Z,18.50
2019-05-02T12:54:22.061Z,18.50
2019-05-02T12:56:52.813Z,19.00
2019-05-02T12:59:22.538Z,18.90
2019-05-02T13:01:52.006Z,19.20
2019-05-02T13:04:22.936Z,19.40
2019-05-02T13:06:53.060Z,19.40
2019-05-02T13:09:23.373Z,19.70
2019-05-02T13:12:02.852Z,19.40
2019-05-02T13:14:32.909Z,19.20
2019-05-02T13:17:05.591Z,18.60
2019-05-02T13:19:40.052Z,18.60
2019-05-02T13:22:21.777Z,18.30
2019-05-02T13:25:03.245Z,18.00
2019-05-02T13:27:43.469Z,17.50
2019-05-02T13:30:04.864Z,17.50
2019-05-02T13:32:38.950Z,17.60
2019-05-02T13:35:17.694Z,17.70
2019-05-02T13:37:47.584Z,17.60
2019-05-02T13:40:28.391Z,17.20
2019-05-02T13:42:57.420Z,17.20
2019-05-02T13:45:48.683Z,17.00
2019-05-02T13:48:17.799Z,17.20
2019-05-02T13:50:46.717Z,17.50
2019-05-02T13:53:15.747Z,17.40
2019-05-02T13:55:52.381Z,16.80
2019-05-02T13:58:28.688Z,16.70
2019-05-02T14:00:52.940Z,16.50
2019-05-02T14:03:22.651Z,16.60
2019-05-02T14:05:53.928Z,16.50
2019-05-02T14:08:44.378Z,16.60
2019-05-02T14:11:31.822Z,16.60
2019-05-02T14:14:01.885Z,16.50
2019-05-02T14:16:32.094Z,16.50
2019-05-02T14:19:03.005Z,16.40
2019-05-02T14:21:32.286Z,16.10
2019-05-02T14:24:01.785Z,15.80
2019-05-02T14:26:33.042Z,15.60
2019-05-02T14:29:02.521Z,15.30
2019-05-02T14:31:32.359Z,15.10
2019-05-02T14:34:19.386Z,15.20
2019-05-02T14:36:48.519Z,15.40
2019-05-02T14:39:17.659Z,15.40
2019-05-02T14:41:47.014Z,15.20
2019-05-02T14:44:18.024Z,14.90
2019-05-02T14:46:46.870Z,14.30
2019-05-02T14:49:16.736Z,14.40
2019-05-02T14:51:46.813Z,14.40
2019-05-02T14:54:16.120Z,14.60
2019-05-02T14:56:56.359Z,14.60
2019-05-02T14:59:25.424Z,14.60
2019-05-02T15:02:03.114Z,14.60
2019-05-02T15:04:27.941Z,14.50
2019-05-02T15:06:57.021Z,14.60
2019-05-02T15:09:26.946Z,14.70
2019-05-02T15:11:59.033Z,14.30
2019-05-02T15:14:29.548Z,14.20
2019-05-02T15:16:59.087Z,14.50
2019-05-02T15:19:28.502Z,14.80
2019-05-02T15:21:57.860Z,14.80
2019-05-02T15:24:27.789Z,14.90
2019-05-02T15:26:57.723Z,15.00
2019-05-02T15:29:27.480Z,15.10
2019-05-02T15:32:07.099Z,15.10
2019-05-02T15:34:53.043Z,15.20
2019-05-02T15:37:25.657Z,15.20
2019-05-02T15:42:25.574Z,15.30
2019-05-02T15:44:57.206Z,15.30
2019-05-02T15:47:24.937Z,15.20
2019-05-02T15:49:53.887Z,14.90
2019-05-02T15:52:27.969Z,14.90
2019-05-02T15:55:03.537Z,14.80
2019-05-02T15:57:27.726Z,14.60
2019-05-02T15:59:56.742Z,14.60
2019-05-02T16:02:26.874Z,14.70
2019-05-02T16:04:57.132Z,14.70
2019-05-02T16:07:27.228Z,14.60
2019-05-02T16:10:01.141Z,14.40
2019-05-02T16:12:32.140Z,14.30
2019-05-02T16:14:58.600Z,14.30
2019-05-02T16:17:28.991Z,14.00
2019-05-02T16:20:09.013Z,13.80
2019-05-02T16:22:38.313Z,13.70
2019-05-02T16:25:06.043Z,13.80
2019-05-02T16:27:48.007Z,13.80
2019-05-02T16:30:22.112Z,13.90
2019-05-02T16:32:56.372Z,13.80
2019-05-02T16:35:26.618Z,13.70
2019-05-02T16:37:56.115Z,13.70
2019-05-02T16:40:29.681Z,13.70
2019-05-02T16:42:57.388Z,13.70
2019-05-02T16:45:26.843Z,13.60
2019-05-02T16:48:00.708Z,13.40
2019-05-02T16:50:31.920Z,13.40
2019-05-02T16:52:58.563Z,13.50
2019-05-02T16:55:28.035Z,13.60
2019-05-02T16:58:02.772Z,13.70
2019-05-02T17:00:32.042Z,13.70
2019-05-02T17:03:02.004Z,13.80
2019-05-02T17:05:32.630Z,13.90
2019-05-02T17:08:22.571Z,14.00
2019-05-02T17:10:58.098Z,13.90
2019-05-02T17:13:32.072Z,14.00
2019-05-02T17:15:58.328Z,14.10
2019-05-02T17:18:27.559Z,14.10
2019-05-02T17:20:57.117Z,14.10
2019-05-02T17:23:26.465Z,13.80
2019-05-02T17:25:55.677Z,13.90
2019-05-02T17:28:25.012Z,14.00
2019-05-02T17:30:54.324Z,14.00
2019-05-02T17:33:23.634Z,13.80
2019-05-02T17:35:54.356Z,14.00
2019-05-02T17:38:27.980Z,14.00
2019-05-02T17:40:59.145Z,13.80
2019-05-02T17:43:25.883Z,13.60
2019-05-02T17:45:56.397Z,13.70
2019-05-02T17:48:25.852Z,13.70
2019-05-02T17:51:08.399Z,13.70
2019-05-02T17:53:41.077Z,13.60
2019-05-02T17:56:12.996Z,13.60
2019-05-02T17:58:39.886Z,13.50
2019-05-02T18:01:14.006Z,13.60
2019-05-02T18:03:43.383Z,13.70
2019-05-02T18:06:17.154Z,13.60
2019-05-02T18:08:46.360Z,13.50
2019-05-02T18:11:16.009Z,13.50
2019-05-02T18:13:45.854Z,13.60
2019-05-02T18:16:16.730Z,13.60
2019-05-02T18:18:46.890Z,13.60
2019-05-02T18:21:17.720Z,13.50
2019-05-02T18:23:47.885Z,13.50
2019-05-02T18:26:17.403Z,13.40
2019-05-02T18:28:49.371Z,13.30
2019-05-02T18:31:18.136Z,13.10
2019-05-02T18:33:47.849Z,12.90
2019-05-02T18:36:22.718Z,12.80
2019-05-02T18:38:52.441Z,12.80
2019-05-02T18:41:20.261Z,12.80
2019-05-02T18:43:52.158Z,12.80
2019-05-02T18:46:22.285Z,12.90
2019-05-02T18:48:52.611Z,12.80
2019-05-02T18:51:22.468Z,12.80
2019-05-02T18:53:52.987Z,12.90
2019-05-02T18:56:22.879Z,12.80
2019-05-02T18:58:53.494Z,12.90
2019-05-02T19:01:23.522Z,12.90
2019-05-02T19:03:56.239Z,12.90
2019-05-02T19:06:27.976Z,12.80
2019-05-02T19:08:59.460Z,12.80
2019-05-02T19:11:33.654Z,12.80
2019-05-02T19:14:02.542Z,12.80
2019-05-02T19:16:31.853Z,12.80
2019-05-02T19:19:01.757Z,12.80
2019-05-02T19:21:35.907Z,12.60
2019-05-02T19:24:03.014Z,12.50
2019-05-02T19:26:34.227Z,12.60
2019-05-02T19:29:26.141Z,12.50
2019-05-02T19:31:56.517Z,12.50
2019-05-02T19:34:26.925Z,12.60
2019-05-02T19:36:58.100Z,12.60
2019-05-02T19:39:32.060Z,12.60
2019-05-02T19:42:01.781Z,12.50
2019-05-02T19:44:33.973Z,12.60
2019-05-02T19:47:03.253Z,12.60
2019-05-02T19:49:33.022Z,12.60
2019-05-02T19:52:02.482Z,12.70
2019-05-02T19:54:39.606Z,12.60
2019-05-02T19:57:02.995Z,12.20
2019-05-02T19:59:32.179Z,12.00
2019-05-02T20:02:04.766Z,12.00
2019-05-02T20:04:32.773Z,12.00
2019-05-02T20:07:02.063Z,12.10
2019-05-02T20:09:31.933Z,12.00
2019-05-02T20:12:06.002Z,12.10
2019-05-02T20:14:32.177Z,12.10
2019-05-02T20:17:02.379Z,12.00
2019-05-02T20:19:34.914Z,12.00
2019-05-02T20:22:14.248Z,11.90
2019-05-02T20:24:59.919Z,11.80
2019-05-02T20:27:27.897Z,11.70
2019-05-02T20:29:56.890Z,11.70
2019-05-02T20:32:26.205Z,11.60
2019-05-02T20:34:55.497Z,11.50
2019-05-02T20:37:25.037Z,11.50
2019-05-02T20:39:54.287Z,11.40
2019-05-02T20:42:23.607Z,11.40
2019-05-02T20:44:52.899Z,11.40
2019-05-02T20:47:24.788Z,11.30
2019-05-02T20:49:54.043Z,11.30
2019-05-02T20:52:23.551Z,11.20
2019-05-02T20:54:52.799Z,11.10
2019-05-02T20:57:22.094Z,11.20
2019-05-02T20:59:52.501Z,11.10
2019-05-02T21:02:22.106Z,11.10
2019-05-02T21:04:57.174Z,11.00
2019-05-02T21:07:43.506Z,10.90
2019-05-02T21:10:21.595Z,10.90
2019-05-02T21:12:52.457Z,10.80
2019-05-02T21:15:21.772Z,10.80
2019-05-02T21:17:51.084Z,10.80
2019-05-02T21:20:21.924Z,10.80
2019-05-02T21:22:53.035Z,10.60
2019-05-02T21:25:23.181Z,10.60
2019-05-02T21:27:52.729Z,10.60
2019-05-02T21:30:26.915Z,10.60
2019-05-02T21:32:56.127Z,10.60
2019-05-02T21:35:25.357Z,10.40
2019-05-02T21:37:54.572Z,10.40
2019-05-02T21:40:25.800Z,10.30
2019-05-02T21:42:54.862Z,10.20
2019-05-02T21:45:24.061Z,10.20
2019-05-02T21:47:53.474Z,9.90
2019-05-02T21:50:33.231Z,10.00
2019-05-02T21:53:19.258Z,10.10
2019-05-02T21:56:14.005Z,10.00
2019-05-02T21:59:02.945Z,9.90
2019-05-02T22:01:33.773Z,9.70
2019-05-02T22:04:03.089Z,9.80
2019-05-02T22:06:32.518Z,9.80
2019-05-02T22:09:03.049Z,9.60
2019-05-02T22:11:32.595Z,9.70
2019-05-02T22:14:02.406Z,9.80
2019-05-02T22:16:32.649Z,9.80
2019-05-02T22:19:02.947Z,9.90
2019-05-02T22:21:35.065Z,9.90
2019-05-02T22:24:11.221Z,10.00
2019-05-02T22:26:34.244Z,10.00
2019-05-02T22:29:03.314Z,9.90
2019-05-02T22:31:32.620Z,9.80
2019-05-02T22:34:02.215Z,9.90
2019-05-02T22:36:32.818Z,9.90
2019-05-02T22:39:36.453Z,9.80
2019-05-02T22:42:05.815Z,9.90
2019-05-02T22:44:35.268Z,10.00
2019-05-02T22:47:04.340Z,9.90
2019-05-02T22:49:33.599Z,9.90
2019-05-02T22:52:02.942Z,9.90
2019-05-02T22:54:33.815Z,9.90
2019-05-02T22:57:03.485Z,9.90
2019-05-02T22:59:32.850Z,9.90
2019-05-02T23:02:02.319Z,10.10
2019-05-02T23:04:32.556Z,10.30
2019-05-02T23:07:02.528Z,10.30
2019-05-02T23:09:32.193Z,10.30
2019-05-02T23:12:02.830Z,10.20
2019-05-02T23:14:32.697Z,10.20
2019-05-02T23:17:02.224Z,10.20
2019-05-02T23:19:31.850Z,10.20
2019-05-02T23:22:02.099Z,10.10
2019-05-02T23:24:59.787Z,10.20
2019-05-02T23:27:42.393Z,10.10
2019-05-02T23:30:14.355Z,9.90
2019-05-02T23:32:43.903Z,9.80
2019-05-02T23:35:13.795Z,9.60
2019-05-02T23:37:43.314Z,9.60
2019-05-02T23:40:13.063Z,9.60
2019-05-02T23:42:42.397Z,9.70
2019-05-02T23:45:12.175Z,9.60
2019-05-02T23:47:42.179Z,9.60
2019-05-02T23:50:12.259Z,9.70
2019-05-02T23:52:41.540Z,9.70
2019-05-02T23:55:12.221Z,9.60
2019-05-02T23:57:42.214Z,9.60
